sensor_id;sensor_type;location;lat;lon;timestamp;P1;durP1;ratioP1;P2;durP2;ratioP2
47335;SDS011;33068;51.990;5.926;2023-09-12T00:00:48;122.00;;;56.67;;
47335;SDS011;33068;51.990;5.926;2023-09-12T00:03:14;114.95;;;55.10;;
47335;SDS011;33068;51.990;5.926;2023-09-12T00:05:50;118.38;;;54.30;;
47335;SDS011;33068;51.990;5.926;2023-09-12T00:08:16;148.32;;;59.17;;
47335;SDS011;33068;51.990;5.926;2023-09-12T00:10:43;120.05;;;55.47;;
47335;SDS011;33068;51.990;5.926;2023-09-12T00:13:09;122.07;;;54.90;;
47335;SDS011;33068;51.990;5.926;2023-09-12T00:15:37;118.30;;;55.22;;
47335;SDS011;33068;51.990;5.926;2023-09-12T00:18:03;123.95;;;58.72;;
47335;SDS011;33068;51.990;5.926;2023-09-12T00:20:30;126.65;;;57.40;;
47335;SDS011;33068;51.990;5.926;2023-09-12T00:22:56;135.90;;;54.40;;
47335;SDS011;33068;51.990;5.926;2023-09-12T00:25:22;125.60;;;54.38;;
47335;SDS011;33068;51.990;5.926;2023-09-12T00:27:49;131.85;;;57.55;;
47335;SDS011;33068;51.990;5.926;2023-09-12T00:30:16;132.15;;;57.22;;
47335;SDS011;33068;51.990;5.926;2023-09-12T00:32:43;136.57;;;56.80;;
47335;SDS011;33068;51.990;5.926;2023-09-12T00:35:11;139.73;;;60.47;;
47335;SDS011;33068;51.990;5.926;2023-09-12T00:37:39;131.45;;;54.15;;
47335;SDS011;33068;51.990;5.926;2023-09-12T00:40:06;157.77;;;61.33;;
47335;SDS011;33068;51.990;5.926;2023-09-12T00:42:33;124.10;;;58.95;;
47335;SDS011;33068;51.990;5.926;2023-09-12T00:44:59;146.98;;;62.05;;
47335;SDS011;33068;51.990;5.926;2023-09-12T00:47:26;161.18;;;64.90;;
47335;SDS011;33068;51.990;5.926;2023-09-12T00:49:55;142.30;;;61.88;;
47335;SDS011;33068;51.990;5.926;2023-09-12T00:52:22;126.35;;;56.65;;
47335;SDS011;33068;51.990;5.926;2023-09-12T00:54:50;129.90;;;56.78;;
47335;SDS011;33068;51.990;5.926;2023-09-12T00:57:17;128.60;;;56.58;;
47335;SDS011;33068;51.990;5.926;2023-09-12T00:59:44;154.40;;;62.80;;
47335;SDS011;33068;51.990;5.926;2023-09-12T01:02:10;157.77;;;61.17;;
47335;SDS011;33068;51.990;5.926;2023-09-12T01:04:36;88.13;;;45.22;;
47335;SDS011;33068;51.990;5.926;2023-09-12T01:07:04;139.77;;;58.50;;
47335;SDS011;33068;51.990;5.926;2023-09-12T01:09:31;148.40;;;59.30;;
47335;SDS011;33068;51.990;5.926;2023-09-12T01:11:58;121.68;;;55.08;;
47335;SDS011;33068;51.990;5.926;2023-09-12T01:14:26;124.55;;;55.40;;
47335;SDS011;33068;51.990;5.926;2023-09-12T01:16:52;156.77;;;57.78;;
47335;SDS011;33068;51.990;5.926;2023-09-12T01:19:19;125.35;;;50.42;;
47335;SDS011;33068;51.990;5.926;2023-09-12T01:22:03;133.75;;;54.78;;
47335;SDS011;33068;51.990;5.926;2023-09-12T01:24:55;137.45;;;55.97;;
47335;SDS011;33068;51.990;5.926;2023-09-12T01:27:35;140.98;;;55.75;;
47335;SDS011;33068;51.990;5.926;2023-09-12T01:30:05;141.93;;;52.90;;
47335;SDS011;33068;51.990;5.926;2023-09-12T01:32:33;137.85;;;52.67;;
47335;SDS011;33068;51.990;5.926;2023-09-12T01:35:01;122.60;;;51.90;;
47335;SDS011;33068;51.990;5.926;2023-09-12T01:37:29;134.48;;;53.17;;
47335;SDS011;33068;51.990;5.926;2023-09-12T01:39:55;91.15;;;46.20;;
47335;SDS011;33068;51.990;5.926;2023-09-12T01:42:22;116.45;;;50.10;;
47335;SDS011;33068;51.990;5.926;2023-09-12T01:44:50;121.70;;;50.03;;
47335;SDS011;33068;51.990;5.926;2023-09-12T01:47:19;127.00;;;52.22;;
47335;SDS011;33068;51.990;5.926;2023-09-12T01:49:48;126.22;;;48.85;;
47335;SDS011;33068;51.990;5.926;2023-09-12T01:52:17;114.65;;;47.42;;
47335;SDS011;33068;51.990;5.926;2023-09-12T01:54:44;121.30;;;46.92;;
47335;SDS011;33068;51.990;5.926;2023-09-12T01:57:13;114.45;;;49.17;;
47335;SDS011;33068;51.990;5.926;2023-09-12T01:59:40;105.68;;;46.75;;
47335;SDS011;33068;51.990;5.926;2023-09-12T02:02:08;109.22;;;48.08;;
47335;SDS011;33068;51.990;5.926;2023-09-12T02:04:34;132.85;;;48.83;;
47335;SDS011;33068;51.990;5.926;2023-09-12T02:07:01;138.55;;;51.80;;
47335;SDS011;33068;51.990;5.926;2023-09-12T02:09:27;124.57;;;48.95;;
47335;SDS011;33068;51.990;5.926;2023-09-12T02:11:54;119.40;;;49.45;;
47335;SDS011;33068;51.990;5.926;2023-09-12T02:14:20;131.13;;;50.10;;
47335;SDS011;33068;51.990;5.926;2023-09-12T02:16:46;128.70;;;49.83;;
47335;SDS011;33068;51.990;5.926;2023-09-12T02:19:14;131.77;;;48.72;;
47335;SDS011;33068;51.990;5.926;2023-09-12T02:21:40;124.72;;;52.08;;
47335;SDS011;33068;51.990;5.926;2023-09-12T02:24:07;116.47;;;46.45;;
47335;SDS011;33068;51.990;5.926;2023-09-12T02:26:34;135.55;;;48.70;;
47335;SDS011;33068;51.990;5.926;2023-09-12T02:29:01;105.53;;;43.90;;
47335;SDS011;33068;51.990;5.926;2023-09-12T02:31:29;115.93;;;48.72;;
47335;SDS011;33068;51.990;5.926;2023-09-12T02:33:55;136.45;;;48.10;;
47335;SDS011;33068;51.990;5.926;2023-09-12T02:36:22;120.28;;;47.63;;
47335;SDS011;33068;51.990;5.926;2023-09-12T02:38:49;114.65;;;47.03;;
47335;SDS011;33068;51.990;5.926;2023-09-12T02:41:15;113.93;;;45.50;;
47335;SDS011;33068;51.990;5.926;2023-09-12T02:43:42;103.18;;;44.72;;
47335;SDS011;33068;51.990;5.926;2023-09-12T02:46:08;105.25;;;45.67;;
47335;SDS011;33068;51.990;5.926;2023-09-12T02:48:35;135.77;;;49.00;;
47335;SDS011;33068;51.990;5.926;2023-09-12T02:51:01;138.15;;;49.55;;
47335;SDS011;33068;51.990;5.926;2023-09-12T02:53:28;113.35;;;47.15;;
47335;SDS011;33068;51.990;5.926;2023-09-12T02:55:55;117.75;;;48.33;;
47335;SDS011;33068;51.990;5.926;2023-09-12T02:58:21;140.05;;;50.30;;
47335;SDS011;33068;51.990;5.926;2023-09-12T03:00:47;119.18;;;45.65;;
47335;SDS011;33068;51.990;5.926;2023-09-12T03:03:19;120.53;;;49.00;;
47335;SDS011;33068;51.990;5.926;2023-09-12T03:05:46;125.82;;;49.67;;
47335;SDS011;33068;51.990;5.926;2023-09-12T03:08:12;121.38;;;49.67;;
47335;SDS011;33068;51.990;5.926;2023-09-12T03:10:39;131.00;;;50.40;;
47335;SDS011;33068;51.990;5.926;2023-09-12T03:13:06;179.50;;;55.60;;
47335;SDS011;33068;51.990;5.926;2023-09-12T03:15:35;135.35;;;49.40;;
47335;SDS011;33068;51.990;5.926;2023-09-12T03:18:03;136.90;;;51.33;;
47335;SDS011;33068;51.990;5.926;2023-09-12T03:20:30;152.60;;;58.28;;
47335;SDS011;33068;51.990;5.926;2023-09-12T03:22:56;140.52;;;62.67;;
47335;SDS011;33068;51.990;5.926;2023-09-12T03:25:22;139.88;;;50.38;;
47335;SDS011;33068;51.990;5.926;2023-09-12T03:27:50;133.07;;;50.50;;
47335;SDS011;33068;51.990;5.926;2023-09-12T03:30:16;125.28;;;48.25;;
47335;SDS011;33068;51.990;5.926;2023-09-12T03:32:43;126.88;;;51.45;;
47335;SDS011;33068;51.990;5.926;2023-09-12T03:35:09;139.10;;;51.05;;
47335;SDS011;33068;51.990;5.926;2023-09-12T03:37:35;124.32;;;47.88;;
47335;SDS011;33068;51.990;5.926;2023-09-12T03:40:06;120.00;;;48.97;;
47335;SDS011;33068;51.990;5.926;2023-09-12T03:42:33;134.13;;;48.83;;
47335;SDS011;33068;51.990;5.926;2023-09-12T03:45:00;161.18;;;53.65;;
47335;SDS011;33068;51.990;5.926;2023-09-12T03:47:27;121.30;;;48.05;;
47335;SDS011;33068;51.990;5.926;2023-09-12T03:49:54;137.48;;;50.30;;
47335;SDS011;33068;51.990;5.926;2023-09-12T03:52:20;124.57;;;48.20;;
47335;SDS011;33068;51.990;5.926;2023-09-12T03:54:46;114.18;;;46.70;;
47335;SDS011;33068;51.990;5.926;2023-09-12T03:57:13;131.82;;;51.10;;
47335;SDS011;33068;51.990;5.926;2023-09-12T03:59:39;146.82;;;50.85;;
47335;SDS011;33068;51.990;5.926;2023-09-12T04:02:06;123.80;;;47.55;;
47335;SDS011;33068;51.990;5.926;2023-09-12T04:04:34;154.27;;;49.58;;
47335;SDS011;33068;51.990;5.926;2023-09-12T04:07:00;126.72;;;51.03;;
47335;SDS011;33068;51.990;5.926;2023-09-12T04:09:27;150.63;;;52.10;;
47335;SDS011;33068;51.990;5.926;2023-09-12T04:11:53;136.93;;;50.28;;
47335;SDS011;33068;51.990;5.926;2023-09-12T04:14:20;151.02;;;54.30;;
47335;SDS011;33068;51.990;5.926;2023-09-12T04:16:47;104.15;;;46.80;;
47335;SDS011;33068;51.990;5.926;2023-09-12T04:19:14;101.50;;;45.58;;
47335;SDS011;33068;51.990;5.926;2023-09-12T04:21:41;146.25;;;53.20;;
47335;SDS011;33068;51.990;5.926;2023-09-12T04:24:08;165.45;;;53.53;;
47335;SDS011;33068;51.990;5.926;2023-09-12T04:26:35;173.88;;;53.35;;
47335;SDS011;33068;51.990;5.926;2023-09-12T04:29:02;171.98;;;53.17;;
47335;SDS011;33068;51.990;5.926;2023-09-12T04:31:28;164.90;;;54.17;;
47335;SDS011;33068;51.990;5.926;2023-09-12T04:33:55;147.55;;;51.97;;
47335;SDS011;33068;51.990;5.926;2023-09-12T04:36:22;211.23;;;57.80;;
47335;SDS011;33068;51.990;5.926;2023-09-12T04:38:49;146.13;;;54.13;;
47335;SDS011;33068;51.990;5.926;2023-09-12T04:41:16;135.65;;;55.88;;
47335;SDS011;33068;51.990;5.926;2023-09-12T04:43:42;145.13;;;58.75;;
47335;SDS011;33068;51.990;5.926;2023-09-12T04:46:09;189.30;;;63.50;;
47335;SDS011;33068;51.990;5.926;2023-09-12T04:48:37;195.82;;;64.75;;
47335;SDS011;33068;51.990;5.926;2023-09-12T04:51:03;156.43;;;59.65;;
47335;SDS011;33068;51.990;5.926;2023-09-12T04:53:30;160.30;;;57.78;;
47335;SDS011;33068;51.990;5.926;2023-09-12T04:56:01;160.18;;;58.35;;
47335;SDS011;33068;51.990;5.926;2023-09-12T04:58:28;184.15;;;62.08;;
47335;SDS011;33068;51.990;5.926;2023-09-12T05:00:54;249.13;;;65.95;;
47335;SDS011;33068;51.990;5.926;2023-09-12T05:03:22;198.07;;;61.25;;
47335;SDS011;33068;51.990;5.926;2023-09-12T05:05:49;204.82;;;62.22;;
47335;SDS011;33068;51.990;5.926;2023-09-12T05:08:16;176.68;;;63.40;;
47335;SDS011;33068;51.990;5.926;2023-09-12T05:10:44;223.38;;;71.60;;
47335;SDS011;33068;51.990;5.926;2023-09-12T05:13:11;249.55;;;72.70;;
47335;SDS011;33068;51.990;5.926;2023-09-12T05:15:37;163.95;;;66.35;;
47335;SDS011;33068;51.990;5.926;2023-09-12T05:18:05;240.18;;;73.40;;
47335;SDS011;33068;51.990;5.926;2023-09-12T05:20:32;195.98;;;65.78;;
47335;SDS011;33068;51.990;5.926;2023-09-12T05:22:58;168.75;;;63.50;;
47335;SDS011;33068;51.990;5.926;2023-09-12T05:25:25;296.92;;;73.35;;
47335;SDS011;33068;51.990;5.926;2023-09-12T05:27:53;173.23;;;66.90;;
47335;SDS011;33068;51.990;5.926;2023-09-12T05:30:21;211.30;;;71.97;;
47335;SDS011;33068;51.990;5.926;2023-09-12T05:32:48;241.02;;;73.07;;
47335;SDS011;33068;51.990;5.926;2023-09-12T05:35:14;222.35;;;70.75;;
47335;SDS011;33068;51.990;5.926;2023-09-12T05:37:42;220.02;;;76.53;;
47335;SDS011;33068;51.990;5.926;2023-09-12T05:40:08;239.82;;;73.63;;
47335;SDS011;33068;51.990;5.926;2023-09-12T05:42:35;198.98;;;69.93;;
47335;SDS011;33068;51.990;5.926;2023-09-12T05:45:03;209.20;;;71.65;;
47335;SDS011;33068;51.990;5.926;2023-09-12T05:47:30;269.23;;;78.07;;
47335;SDS011;33068;51.990;5.926;2023-09-12T05:49:56;262.75;;;80.57;;
47335;SDS011;33068;51.990;5.926;2023-09-12T05:52:25;324.98;;;84.13;;
47335;SDS011;33068;51.990;5.926;2023-09-12T05:54:51;319.05;;;77.90;;
47335;SDS011;33068;51.990;5.926;2023-09-12T05:57:18;276.80;;;79.00;;
47335;SDS011;33068;51.990;5.926;2023-09-12T05:59:44;274.33;;;78.88;;
47335;SDS011;33068;51.990;5.926;2023-09-12T06:02:11;283.00;;;74.03;;
47335;SDS011;33068;51.990;5.926;2023-09-12T06:04:38;233.13;;;74.18;;
47335;SDS011;33068;51.990;5.926;2023-09-12T06:07:04;222.23;;;74.90;;
47335;SDS011;33068;51.990;5.926;2023-09-12T06:09:31;227.07;;;75.50;;
47335;SDS011;33068;51.990;5.926;2023-09-12T06:11:57;181.40;;;69.78;;
47335;SDS011;33068;51.990;5.926;2023-09-12T06:14:23;189.40;;;69.57;;
47335;SDS011;33068;51.990;5.926;2023-09-12T06:16:50;244.43;;;77.30;;
47335;SDS011;33068;51.990;5.926;2023-09-12T06:19:17;247.60;;;76.03;;
47335;SDS011;33068;51.990;5.926;2023-09-12T06:21:44;225.05;;;74.13;;
47335;SDS011;33068;51.990;5.926;2023-09-12T06:24:11;275.63;;;80.35;;
47335;SDS011;33068;51.990;5.926;2023-09-12T06:26:39;200.80;;;70.10;;
47335;SDS011;33068;51.990;5.926;2023-09-12T06:29:06;224.95;;;76.75;;
47335;SDS011;33068;51.990;5.926;2023-09-12T06:31:33;287.20;;;80.45;;
47335;SDS011;33068;51.990;5.926;2023-09-12T06:34:00;260.85;;;73.80;;
47335;SDS011;33068;51.990;5.926;2023-09-12T06:36:28;302.50;;;86.60;;
47335;SDS011;33068;51.990;5.926;2023-09-12T06:38:54;262.83;;;78.50;;
47335;SDS011;33068;51.990;5.926;2023-09-12T06:41:21;247.27;;;77.78;;
47335;SDS011;33068;51.990;5.926;2023-09-12T06:43:47;256.80;;;79.15;;
47335;SDS011;33068;51.990;5.926;2023-09-12T06:46:14;168.63;;;68.57;;
47335;SDS011;33068;51.990;5.926;2023-09-12T06:48:42;180.40;;;67.70;;
47335;SDS011;33068;51.990;5.926;2023-09-12T06:51:09;273.83;;;79.88;;
47335;SDS011;33068;51.990;5.926;2023-09-12T06:53:36;188.98;;;67.30;;
47335;SDS011;33068;51.990;5.926;2023-09-12T06:56:03;202.68;;;69.28;;
47335;SDS011;33068;51.990;5.926;2023-09-12T06:58:29;191.23;;;69.43;;
47335;SDS011;33068;51.990;5.926;2023-09-12T07:01:01;203.93;;;70.15;;
47335;SDS011;33068;51.990;5.926;2023-09-12T07:03:28;209.18;;;67.05;;
47335;SDS011;33068;51.990;5.926;2023-09-12T07:05:55;179.90;;;68.75;;
47335;SDS011;33068;51.990;5.926;2023-09-12T07:08:21;192.35;;;66.45;;
47335;SDS011;33068;51.990;5.926;2023-09-12T07:10:48;210.70;;;72.78;;
47335;SDS011;33068;51.990;5.926;2023-09-12T07:13:15;194.57;;;68.55;;
47335;SDS011;33068;51.990;5.926;2023-09-12T07:15:41;216.02;;;71.85;;
47335;SDS011;33068;51.990;5.926;2023-09-12T07:18:08;165.30;;;66.45;;
47335;SDS011;33068;51.990;5.926;2023-09-12T07:20:34;168.93;;;62.00;;
47335;SDS011;33068;51.990;5.926;2023-09-12T07:23:01;197.90;;;65.63;;
47335;SDS011;33068;51.990;5.926;2023-09-12T07:25:27;150.50;;;62.22;;
47335;SDS011;33068;51.990;5.926;2023-09-12T07:27:54;142.65;;;59.40;;
47335;SDS011;33068;51.990;5.926;2023-09-12T07:30:21;132.00;;;58.08;;
47335;SDS011;33068;51.990;5.926;2023-09-12T07:32:47;120.47;;;52.88;;
47335;SDS011;33068;51.990;5.926;2023-09-12T07:35:13;132.90;;;56.78;;
47335;SDS011;33068;51.990;5.926;2023-09-12T07:37:40;124.93;;;54.03;;
47335;SDS011;33068;51.990;5.926;2023-09-12T07:40:08;129.82;;;53.25;;
47335;SDS011;33068;51.990;5.926;2023-09-12T07:42:35;120.15;;;57.78;;
47335;SDS011;33068;51.990;5.926;2023-09-12T07:45:02;131.70;;;57.55;;
47335;SDS011;33068;51.990;5.926;2023-09-12T07:47:29;124.63;;;51.72;;
47335;SDS011;33068;51.990;5.926;2023-09-12T07:49:55;144.07;;;58.70;;
47335;SDS011;33068;51.990;5.926;2023-09-12T07:52:21;113.43;;;51.60;;
47335;SDS011;33068;51.990;5.926;2023-09-12T07:54:48;114.05;;;53.55;;
47335;SDS011;33068;51.990;5.926;2023-09-12T07:57:18;116.53;;;52.00;;
47335;SDS011;33068;51.990;5.926;2023-09-12T07:59:44;100.65;;;47.88;;
47335;SDS011;33068;51.990;5.926;2023-09-12T08:02:11;105.90;;;48.42;;
47335;SDS011;33068;51.990;5.926;2023-09-12T08:04:38;113.82;;;53.15;;
47335;SDS011;33068;51.990;5.926;2023-09-12T08:07:04;106.05;;;48.17;;
47335;SDS011;33068;51.990;5.926;2023-09-12T08:12:16;106.97;;;52.80;;
47335;SDS011;33068;51.990;5.926;2023-09-12T08:14:42;95.43;;;45.78;;
47335;SDS011;33068;51.990;5.926;2023-09-12T08:17:11;92.43;;;45.95;;
47335;SDS011;33068;51.990;5.926;2023-09-12T08:19:37;97.22;;;49.50;;
47335;SDS011;33068;51.990;5.926;2023-09-12T08:22:04;86.03;;;44.47;;
47335;SDS011;33068;51.990;5.926;2023-09-12T08:24:31;83.63;;;42.60;;
47335;SDS011;33068;51.990;5.926;2023-09-12T08:26:58;76.57;;;40.42;;
47335;SDS011;33068;51.990;5.926;2023-09-12T08:29:24;74.25;;;41.22;;
47335;SDS011;33068;51.990;5.926;2023-09-12T08:31:51;63.80;;;37.65;;
47335;SDS011;33068;51.990;5.926;2023-09-12T08:34:19;72.75;;;39.90;;
47335;SDS011;33068;51.990;5.926;2023-09-12T08:36:46;68.43;;;36.97;;
47335;SDS011;33068;51.990;5.926;2023-09-12T08:39:13;63.75;;;36.08;;
47335;SDS011;33068;51.990;5.926;2023-09-12T08:41:41;65.38;;;39.08;;
47335;SDS011;33068;51.990;5.926;2023-09-12T08:44:08;62.83;;;37.15;;
47335;SDS011;33068;51.990;5.926;2023-09-12T08:46:35;60.47;;;35.13;;
47335;SDS011;33068;51.990;5.926;2023-09-12T08:49:02;68.15;;;36.03;;
47335;SDS011;33068;51.990;5.926;2023-09-12T08:51:32;52.28;;;32.33;;
47335;SDS011;33068;51.990;5.926;2023-09-12T08:53:58;50.55;;;30.33;;
47335;SDS011;33068;51.990;5.926;2023-09-12T08:56:25;47.10;;;27.13;;
47335;SDS011;33068;51.990;5.926;2023-09-12T08:58:52;41.47;;;25.55;;
47335;SDS011;33068;51.990;5.926;2023-09-12T09:01:20;37.95;;;24.40;;
47335;SDS011;33068;51.990;5.926;2023-09-12T09:03:47;40.58;;;25.63;;
47335;SDS011;33068;51.990;5.926;2023-09-12T09:06:14;46.65;;;28.55;;
47335;SDS011;33068;51.990;5.926;2023-09-12T09:08:43;40.85;;;24.92;;
47335;SDS011;33068;51.990;5.926;2023-09-12T09:11:10;39.63;;;25.55;;
47335;SDS011;33068;51.990;5.926;2023-09-12T09:13:40;44.05;;;28.15;;
47335;SDS011;33068;51.990;5.926;2023-09-12T09:16:11;39.75;;;25.90;;
47335;SDS011;33068;51.990;5.926;2023-09-12T09:18:50;38.17;;;22.52;;
47335;SDS011;33068;51.990;5.926;2023-09-12T09:21:18;38.35;;;24.00;;
47335;SDS011;33068;51.990;5.926;2023-09-12T09:23:46;41.80;;;25.08;;
47335;SDS011;33068;51.990;5.926;2023-09-12T09:26:12;38.75;;;24.42;;
47335;SDS011;33068;51.990;5.926;2023-09-12T09:28:39;35.13;;;21.15;;
47335;SDS011;33068;51.990;5.926;2023-09-12T09:31:08;35.65;;;21.75;;
47335;SDS011;33068;51.990;5.926;2023-09-12T09:33:36;36.97;;;23.42;;
47335;SDS011;33068;51.990;5.926;2023-09-12T09:36:04;34.50;;;23.25;;
47335;SDS011;33068;51.990;5.926;2023-09-12T09:38:31;33.60;;;19.73;;
47335;SDS011;33068;51.990;5.926;2023-09-12T09:41:00;30.95;;;20.67;;
47335;SDS011;33068;51.990;5.926;2023-09-12T09:43:29;25.00;;;17.00;;
47335;SDS011;33068;51.990;5.926;2023-09-12T09:45:57;25.30;;;16.50;;
47335;SDS011;33068;51.990;5.926;2023-09-12T09:48:25;26.25;;;17.75;;
47335;SDS011;33068;51.990;5.926;2023-09-12T09:50:52;25.08;;;17.15;;
47335;SDS011;33068;51.990;5.926;2023-09-12T09:53:25;27.95;;;18.92;;
47335;SDS011;33068;51.990;5.926;2023-09-12T09:55:52;30.10;;;20.00;;
47335;SDS011;33068;51.990;5.926;2023-09-12T09:58:33;28.85;;;19.17;;
47335;SDS011;33068;51.990;5.926;2023-09-12T10:00:59;33.13;;;20.13;;
47335;SDS011;33068;51.990;5.926;2023-09-12T10:03:28;30.08;;;19.17;;
47335;SDS011;33068;51.990;5.926;2023-09-12T10:05:58;28.73;;;18.13;;
47335;SDS011;33068;51.990;5.926;2023-09-12T10:08:28;25.58;;;16.33;;
47335;SDS011;33068;51.990;5.926;2023-09-12T10:10:55;27.45;;;18.00;;
47335;SDS011;33068;51.990;5.926;2023-09-12T10:13:21;24.58;;;17.88;;
47335;SDS011;33068;51.990;5.926;2023-09-12T10:15:52;22.02;;;15.82;;
47335;SDS011;33068;51.990;5.926;2023-09-12T10:18:22;21.52;;;15.43;;
47335;SDS011;33068;51.990;5.926;2023-09-12T10:20:51;19.05;;;14.25;;
47335;SDS011;33068;51.990;5.926;2023-09-12T10:23:22;22.75;;;14.68;;
47335;SDS011;33068;51.990;5.926;2023-09-12T10:25:53;23.50;;;15.90;;
47335;SDS011;33068;51.990;5.926;2023-09-12T10:28:21;22.23;;;14.65;;
47335;SDS011;33068;51.990;5.926;2023-09-12T10:30:48;18.40;;;12.38;;
47335;SDS011;33068;51.990;5.926;2023-09-12T10:33:16;17.65;;;14.45;;
47335;SDS011;33068;51.990;5.926;2023-09-12T10:35:43;20.85;;;15.27;;
47335;SDS011;33068;51.990;5.926;2023-09-12T10:38:11;21.38;;;14.38;;
47335;SDS011;33068;51.990;5.926;2023-09-12T10:40:40;21.42;;;14.60;;
47335;SDS011;33068;51.990;5.926;2023-09-12T10:43:07;19.33;;;14.30;;
47335;SDS011;33068;51.990;5.926;2023-09-12T10:45:36;19.55;;;15.13;;
47335;SDS011;33068;51.990;5.926;2023-09-12T10:48:04;16.02;;;12.50;;
47335;SDS011;33068;51.990;5.926;2023-09-12T10:50:32;23.23;;;13.43;;
47335;SDS011;33068;51.990;5.926;2023-09-12T10:53:07;20.02;;;14.27;;
47335;SDS011;33068;51.990;5.926;2023-09-12T10:55:35;20.48;;;12.68;;
47335;SDS011;33068;51.990;5.926;2023-09-12T10:58:02;18.60;;;12.88;;
47335;SDS011;33068;51.990;5.926;2023-09-12T11:00:30;17.70;;;11.75;;
47335;SDS011;33068;51.990;5.926;2023-09-12T11:02:58;19.50;;;11.88;;
47335;SDS011;33068;51.990;5.926;2023-09-12T11:05:36;15.65;;;12.13;;
47335;SDS011;33068;51.990;5.926;2023-09-12T11:08:09;15.32;;;10.80;;
47335;SDS011;33068;51.990;5.926;2023-09-12T11:10:36;19.48;;;12.23;;
47335;SDS011;33068;51.990;5.926;2023-09-12T11:13:02;18.00;;;13.35;;
47335;SDS011;33068;51.990;5.926;2023-09-12T11:15:29;18.38;;;12.13;;
47335;SDS011;33068;51.990;5.926;2023-09-12T11:18:00;15.20;;;11.90;;
47335;SDS011;33068;51.990;5.926;2023-09-12T11:23:18;14.57;;;10.35;;
47335;SDS011;33068;51.990;5.926;2023-09-12T11:25:45;13.55;;;10.10;;
47335;SDS011;33068;51.990;5.926;2023-09-12T11:28:11;12.45;;;8.32;;
47335;SDS011;33068;51.990;5.926;2023-09-12T11:30:38;13.38;;;8.38;;
47335;SDS011;33068;51.990;5.926;2023-09-12T11:33:21;11.95;;;8.93;;
47335;SDS011;33068;51.990;5.926;2023-09-12T11:35:52;9.75;;;8.15;;
47335;SDS011;33068;51.990;5.926;2023-09-12T11:38:25;13.98;;;9.18;;
47335;SDS011;33068;51.990;5.926;2023-09-12T11:40:53;12.10;;;7.80;;
47335;SDS011;33068;51.990;5.926;2023-09-12T11:43:20;10.45;;;8.55;;
47335;SDS011;33068;51.990;5.926;2023-09-12T11:45:48;10.43;;;7.45;;
47335;SDS011;33068;51.990;5.926;2023-09-12T11:48:15;10.20;;;7.22;;
47335;SDS011;33068;51.990;5.926;2023-09-12T11:50:41;8.45;;;5.93;;
47335;SDS011;33068;51.990;5.926;2023-09-12T11:53:09;7.88;;;5.82;;
47335;SDS011;33068;51.990;5.926;2023-09-12T11:55:37;9.90;;;5.25;;
47335;SDS011;33068;51.990;5.926;2023-09-12T11:58:08;6.28;;;5.68;;
47335;SDS011;33068;51.990;5.926;2023-09-12T12:00:34;7.47;;;5.50;;
47335;SDS011;33068;51.990;5.926;2023-09-12T12:03:00;10.55;;;5.43;;
47335;SDS011;33068;51.990;5.926;2023-09-12T12:05:27;9.95;;;5.40;;
47335;SDS011;33068;51.990;5.926;2023-09-12T12:07:54;7.65;;;5.95;;
47335;SDS011;33068;51.990;5.926;2023-09-12T12:10:22;7.88;;;5.65;;
47335;SDS011;33068;51.990;5.926;2023-09-12T12:12:52;6.28;;;5.18;;
47335;SDS011;33068;51.990;5.926;2023-09-12T12:15:18;7.95;;;5.60;;
47335;SDS011;33068;51.990;5.926;2023-09-12T12:17:46;4.72;;;3.30;;
47335;SDS011;33068;51.990;5.926;2023-09-12T12:20:12;7.07;;;5.07;;
47335;SDS011;33068;51.990;5.926;2023-09-12T12:22:38;6.75;;;4.00;;
47335;SDS011;33068;51.990;5.926;2023-09-12T12:25:05;6.00;;;3.72;;
47335;SDS011;33068;51.990;5.926;2023-09-12T12:27:34;6.18;;;4.20;;
47335;SDS011;33068;51.990;5.926;2023-09-12T12:30:01;5.28;;;3.78;;
47335;SDS011;33068;51.990;5.926;2023-09-12T12:32:28;11.02;;;6.40;;
47335;SDS011;33068;51.990;5.926;2023-09-12T12:34:54;7.80;;;5.70;;
47335;SDS011;33068;51.990;5.926;2023-09-12T12:37:21;10.60;;;4.97;;
47335;SDS011;33068;51.990;5.926;2023-09-12T12:39:47;8.70;;;5.45;;
47335;SDS011;33068;51.990;5.926;2023-09-12T12:42:13;9.88;;;5.57;;
47335;SDS011;33068;51.990;5.926;2023-09-12T12:44:40;6.05;;;3.95;;
47335;SDS011;33068;51.990;5.926;2023-09-12T12:47:08;4.30;;;3.20;;
47335;SDS011;33068;51.990;5.926;2023-09-12T12:49:38;6.47;;;3.63;;
47335;SDS011;33068;51.990;5.926;2023-09-12T12:52:05;5.82;;;3.60;;
47335;SDS011;33068;51.990;5.926;2023-09-12T12:54:34;9.38;;;5.20;;
47335;SDS011;33068;51.990;5.926;2023-09-12T12:57:01;4.30;;;3.03;;
47335;SDS011;33068;51.990;5.926;2023-09-12T12:59:28;5.63;;;4.20;;
47335;SDS011;33068;51.990;5.926;2023-09-12T13:01:55;5.53;;;3.65;;
47335;SDS011;33068;51.990;5.926;2023-09-12T13:04:23;7.18;;;4.47;;
47335;SDS011;33068;51.990;5.926;2023-09-12T13:06:50;6.80;;;4.35;;
47335;SDS011;33068;51.990;5.926;2023-09-12T13:09:16;6.40;;;4.55;;
47335;SDS011;33068;51.990;5.926;2023-09-12T13:11:43;4.72;;;3.78;;
47335;SDS011;33068;51.990;5.926;2023-09-12T13:14:09;4.43;;;3.47;;
47335;SDS011;33068;51.990;5.926;2023-09-12T13:16:36;7.72;;;5.18;;
47335;SDS011;33068;51.990;5.926;2023-09-12T13:19:03;8.85;;;6.20;;
47335;SDS011;33068;51.990;5.926;2023-09-12T13:21:29;6.43;;;5.18;;
47335;SDS011;33068;51.990;5.926;2023-09-12T13:23:57;8.00;;;3.45;;
47335;SDS011;33068;51.990;5.926;2023-09-12T13:26:24;5.05;;;4.13;;
47335;SDS011;33068;51.990;5.926;2023-09-12T13:28:50;4.45;;;3.38;;
47335;SDS011;33068;51.990;5.926;2023-09-12T13:31:17;5.65;;;4.30;;
47335;SDS011;33068;51.990;5.926;2023-09-12T13:33:43;8.20;;;5.13;;
47335;SDS011;33068;51.990;5.926;2023-09-12T13:36:10;6.93;;;4.78;;
47335;SDS011;33068;51.990;5.926;2023-09-12T13:38:36;8.90;;;5.43;;
47335;SDS011;33068;51.990;5.926;2023-09-12T13:41:03;7.28;;;4.65;;
47335;SDS011;33068;51.990;5.926;2023-09-12T13:43:29;5.82;;;4.82;;
47335;SDS011;33068;51.990;5.926;2023-09-12T13:45:56;10.07;;;5.60;;
47335;SDS011;33068;51.990;5.926;2023-09-12T13:48:23;8.07;;;5.88;;
47335;SDS011;33068;51.990;5.926;2023-09-12T13:50:51;7.82;;;6.20;;
47335;SDS011;33068;51.990;5.926;2023-09-12T13:53:18;7.95;;;5.95;;
47335;SDS011;33068;51.990;5.926;2023-09-12T13:55:44;9.88;;;7.35;;
47335;SDS011;33068;51.990;5.926;2023-09-12T13:58:10;13.25;;;9.10;;
47335;SDS011;33068;51.990;5.926;2023-09-12T14:00:37;12.45;;;7.45;;
47335;SDS011;33068;51.990;5.926;2023-09-12T14:03:03;8.75;;;6.63;;
47335;SDS011;33068;51.990;5.926;2023-09-12T14:05:30;9.30;;;7.07;;
47335;SDS011;33068;51.990;5.926;2023-09-12T14:07:56;11.40;;;6.32;;
47335;SDS011;33068;51.990;5.926;2023-09-12T14:10:24;7.45;;;5.65;;
47335;SDS011;33068;51.990;5.926;2023-09-12T14:12:50;10.55;;;6.15;;
47335;SDS011;33068;51.990;5.926;2023-09-12T14:15:16;9.40;;;6.70;;
47335;SDS011;33068;51.990;5.926;2023-09-12T14:17:43;7.80;;;4.88;;
47335;SDS011;33068;51.990;5.926;2023-09-12T14:20:09;9.90;;;6.13;;
47335;SDS011;33068;51.990;5.926;2023-09-12T14:22:40;8.32;;;5.15;;
47335;SDS011;33068;51.990;5.926;2023-09-12T14:25:08;7.75;;;4.78;;